Time;durP1;ratioP1;P1;durP2;ratioP2;P2;SDS_P1;SDS_P2;PMS_P1;PMS_P2;Temp;Humidity;BMP_temperature;BMP_pressure;BME280_temperature;BME280_humidity;BME280_pressure;Samples;Min_cycle;Max_cycle;Signal;HPM_P1;HPM_P2
2023/10/02 00:00:30;;;;;;;1.23;0.52;;;;;;;21.55;100.00;101990.94;10440714;28;20087;-77
2023/10/02 00:05:40;;;;;;;2.60;1.27;;;;;;;20.95;100.00;101983.16;10456712;28;20087;-77
2023/10/02 00:10:42;;;;;;;0.65;0.43;;;;;;;20.97;100.00;101988.38;10456714;28;20068;-77
2023/10/02 00:15:45;;;;;;;1.15;1.02;;;;;;;21.46;100.00;101996.22;10439995;28;20456;-77
2023/10/02 00:21:17;;;;;;;0.50;0.30;;;;;;;21.25;100.00;101989.25;10439300;28;20052;-77
2023/10/02 00:26:10;;;;;;;1.23;0.57;;;;;;;21.32;100.00;101979.63;10457360;28;20049;-78
2023/10/02 00:31:32;;;;;;;0.90;0.38;;;;;;;21.34;100.00;101981.38;10456811;28;20070;-77
2023/10/02 00:36:36;;;;;;;2.83;1.02;;;;;;;21.24;100.00;101983.16;10439428;28;20511;-78
2023/10/02 00:41:38;;;;;;;0.65;0.63;;;;;;;21.32;100.00;101990.13;10438894;28;20453;-77
2023/10/02 00:46:42;;;;;;;1.08;0.90;;;;;;;21.15;100.00;101982.28;10456858;28;20454;-77
2023/10/02 00:51:46;;;;;;;1.33;1.08;;;;;;;20.89;100.00;101977.94;10455351;28;20091;-77
2023/10/02 00:56:51;;;;;;;0.73;0.70;;;;;;;20.83;100.00;101970.94;10455086;28;20057;-77
2023/10/02 01:01:53;;;;;;;1.77;0.82;;;;;;;20.94;100.00;101968.31;10455529;28;20040;-78
2023/10/02 01:07:04;;;;;;;1.85;0.98;;;;;;;21.41;100.00;101969.13;10438474;28;20099;-77
2023/10/02 01:12:10;;;;;;;1.20;0.40;;;;;;;21.88;100.00;101972.50;10454833;28;20131;-78
2023/10/02 01:17:16;;;;;;;0.20;0.10;;;;;;;21.69;100.00;101976.94;10438177;28;20110;-77
2023/10/02 01:22:42;;;;;;;2.40;0.73;;;;;;;21.40;100.00;101977.88;10437931;28;20067;-77
2023/10/02 01:27:50;;;;;;;0.30;0.30;;;;;;;21.63;100.00;101969.13;10430971;28;20491;-77
2023/10/02 01:38:18;;;;;;;0.65;0.28;;;;;;;21.07;100.00;101970.03;10422411;28;20084;-77
2023/10/02 01:43:27;;;;;;;0.22;0.10;;;;;;;20.90;100.00;101961.34;10446049;28;20057;-77
2023/10/02 01:48:38;;;;;;;0.30;0.22;;;;;;;21.31;100.00;101962.16;10445962;28;20471;-77
2023/10/02 01:53:41;;;;;;;0.13;0.08;;;;;;;21.63;100.00;101963.88;10462227;28;20412;-78
2023/10/02 01:58:44;;;;;;;0.03;0.00;;;;;;;20.96;100.00;101963.09;10445633;28;20041;-77
2023/10/02 02:03:48;;;;;;;0.80;0.52;;;;;;;21.30;100.00;101957.78;10461960;28;20407;-77
2023/10/02 02:09:01;;;;;;;1.08;0.70;;;;;;;21.37;100.00;101959.53;10445397;28;20044;-77
2023/10/02 02:14:04;;;;;;;0.40;0.40;;;;;;;21.36;100.00;101961.28;10444833;28;20476;-77
2023/10/02 02:19:07;;;;;;;0.35;0.35;;;;;;;21.17;100.00;101970.94;10444854;28;20454;-77
2023/10/02 02:24:11;;;;;;;0.30;0.30;;;;;;;21.51;100.00;101965.59;10444818;28;20510;-77
2023/10/02 02:29:26;;;;;;;0.30;0.10;;;;;;;21.16;100.00;101958.69;10444369;28;20072;-77
2023/10/02 02:34:28;;;;;;;0.10;0.10;;;;;;;21.31;100.00;101956.91;10460689;28;20045;-78
2023/10/02 02:39:30;;;;;;;1.50;0.55;;;;;;;21.22;100.00;101942.97;10460565;28;20100;-77
2023/10/02 02:44:40;;;;;;;6.47;0.22;;;;;;;21.42;100.00;101939.41;10443454;28;20407;-77
2023/10/02 02:49:48;;;;;;;1.10;0.65;;;;;;;21.17;100.00;101939.47;10460211;28;20454;-77
2023/10/02 02:54:58;;;;;;;1.70;1.25;;;;;;;21.18;100.00;101940.34;10443675;28;20048;-78
2023/10/02 03:05:38;;;;;;;1.05;0.38;;;;;;;21.28;100.00;101928.97;10476261;28;20007;-78
2023/10/02 03:10:40;;;;;;;0.52;0.20;;;;;;;21.45;100.00;101928.91;10459430;28;20099;-78
2023/10/02 03:15:46;;;;;;;1.00;0.90;;;;;;;21.46;100.00;101930.66;10459462;28;20105;-78
2023/10/02 03:20:50;;;;;;;1.65;0.52;;;;;;;21.16;100.00;101922.00;10459159;28;20048;-78
2023/10/02 03:25:55;;;;;;;0.52;0.35;;;;;;;21.31;100.00;101909.75;10458789;28;20057;-78
2023/10/02 03:30:58;;;;;;;0.38;0.38;;;;;;;21.19;100.00;101906.25;10459887;28;20075;-78
2023/10/02 03:36:09;;;;;;;1.50;1.25;;;;;;;21.24;100.00;101901.91;10442109;28;20052;-78
2023/10/02 03:41:13;;;;;;;0.82;0.50;;;;;;;21.07;100.00;101903.69;10458509;28;20040;-78
2023/10/02 03:46:22;;;;;;;2.58;1.08;;;;;;;20.81;100.00;101894.13;10428232;28;20049;-78
2023/10/02 03:51:40;;;;;;;3.97;1.52;;;;;;;20.66;100.00;101894.97;10423508;28;20098;-78
2023/10/02 03:56:49;;;;;;;0.47;0.38;;;;;;;20.85;100.00;101885.38;10457393;28;20140;-78
2023/10/02 04:01:52;;;;;;;1.02;0.65;;;;;;;20.50;100.00;101888.88;10457578;28;20047;-78
2023/10/02 04:06:53;;;;;;;2.42;0.80;;;;;;;21.13;100.00;101893.19;10457298;28;20478;-78
2023/10/02 04:11:56;;;;;;;1.80;1.33;;;;;;;20.93;100.00;101901.06;10456863;28;20059;-78
2023/10/02 04:22:22;;;;;;;0.68;0.60;;;;;;;21.24;100.00;101899.28;10456581;28;20049;-78
2023/10/02 04:27:25;;;;;;;0.73;0.55;;;;;;;20.71;100.00;101892.34;10456277;28;20136;-78
2023/10/02 04:32:27;;;;;;;2.17;1.17;;;;;;;20.70;100.00;101890.59;10456086;28;20098;-78
2023/10/02 04:37:31;;;;;;;9.48;1.58;;;;;;;20.77;100.00;101888.00;10457532;28;20044;-78
2023/10/02 04:48:11;;;;;;;6.55;1.30;;;;;;;20.46;100.00;101887.09;10420207;28;20408;-78
2023/10/02 04:58:19;;;;;;;1.42;0.93;;;;;;;20.79;100.00;101890.63;10418109;28;22086;-79
2023/10/02 05:03:25;;;;;;;6.28;1.38;;;;;;;20.82;100.00;101901.09;10432531;28;20049;-78
2023/10/02 05:08:40;;;;;;;0.47;0.47;;;;;;;20.88;100.00;101901.09;10454659;28;20480;-78
2023/10/02 05:13:45;;;;;;;1.70;0.65;;;;;;;21.00;100.00;101904.56;10454663;28;20053;-78
2023/10/02 05:18:51;;;;;;;0.20;0.20;;;;;;;20.96;100.00;101908.94;10454193;28;20045;-78
2023/10/02 05:24:01;;;;;;;4.90;1.45;;;;;;;21.56;100.00;101906.16;10454526;28;20133;-78
2023/10/02 05:29:07;;;;;;;1.30;1.20;;;;;;;21.12;100.00;101909.78;10412932;28;20065;-78
2023/10/02 05:34:21;;;;;;;2.88;0.52;;;;;;;21.15;100.00;101904.53;10430335;28;20458;-78
2023/10/02 05:39:28;;;;;;;0.95;0.75;;;;;;;21.03;100.00;101901.97;10430370;28;20060;-78
2023/10/02 05:44:31;;;;;;;0.43;0.43;;;;;;;21.37;100.00;101904.47;10414477;28;20052;-78
2023/10/02 05:49:43;;;;;;;2.70;1.25;;;;;;;21.34;100.00;101899.22;10429965;28;20058;-78
2023/10/02 05:54:55;;;;;;;1.13;0.55;;;;;;;21.57;100.00;101907.06;10437053;28;20056;-78
2023/10/02 05:59:57;;;;;;;1.20;0.45;;;;;;;21.46;100.00;101912.31;10454056;28;20500;-78
2023/10/02 06:05:18;;;;;;;0.75;0.60;;;;;;;21.27;100.00;101913.22;10453822;28;20072;-78
2023/10/02 06:10:26;;;;;;;1.00;0.65;;;;;;;21.45;100.00;101917.53;10454552;28;20047;-78
2023/10/02 06:15:46;;;;;;;3.80;1.60;;;;;;;21.24;100.00;101928.09;10453444;28;20045;-78
2023/10/02 06:20:58;;;;;;;3.15;1.48;;;;;;;21.21;100.00;101925.47;10456491;28;20114;-78
2023/10/02 06:26:00;;;;;;;3.67;0.40;;;;;;;21.41;100.00;101927.16;10460987;28;20083;-78
2023/10/02 06:31:06;;;;;;;1.58;0.63;;;;;;;21.49;100.00;101933.25;10460894;28;20053;-78
2023/10/02 06:36:09;;;;;;;0.80;0.55;;;;;;;21.54;100.00;101923.66;10444438;28;20041;-78
2023/10/02 06:41:15;;;;;;;1.77;0.82;;;;;;;21.62;100.00;101928.88;10460727;28;20059;-78
2023/10/02 06:46:18;;;;;;;1.85;1.27;;;;;;;21.54;100.00;101928.91;10432487;28;20480;-78
2023/10/02 06:51:21;;;;;;;1.48;0.45;;;;;;;22.30;100.00;101946.91;10441723;28;20045;-78
2023/10/02 06:56:23;;;;;;;2.20;1.00;;;;;;;21.68;100.00;101943.72;10443615;28;20049;-78
2023/10/02 07:01:27;;;;;;;0.75;0.47;;;;;;;21.64;100.00;101947.22;10443146;28;20053;-79
2023/10/02 07:06:29;;;;;;;3.42;1.58;;;;;;;21.41;100.00;101940.28;10443986;28;20052;-78
2023/10/02 07:12:08;;;;;;;0.85;0.30;;;;;;;22.40;100.00;101945.13;10443652;28;20139;-78
2023/10/02 07:17:16;;;;;;;0.65;0.50;;;;;;;22.88;100.00;101939.47;10459802;28;20045;-78
2023/10/02 07:22:23;;;;;;;2.55;0.63;;;;;;;22.69;100.00;101944.03;10443459;28;20546;-78
2023/10/02 07:27:26;;;;;;;2.40;0.85;;;;;;;22.77;100.00;101952.72;10459013;28;20052;-78
2023/10/02 07:32:31;;;;;;;2.40;1.35;;;;;;;22.54;100.00;101949.38;10457566;28;20129;-78
2023/10/02 07:37:34;;;;;;;0.80;0.68;;;;;;;23.14;100.00;101943.63;10459903;28;20499;-79
2023/10/02 07:42:38;;;;;;;1.17;0.22;;;;;;;23.59;100.00;101937.88;10458531;28;20095;-78
2023/10/02 07:48:08;;;;;;;6.70;1.42;;;;;;;23.52;100.00;101946.75;10458131;28;20052;-78
2023/10/02 07:53:12;;;;;;;4.03;1.80;;;;;;;24.08;100.00;101945.19;10457993;28;20041;-78
2023/10/02 07:58:17;;;;;;;0.95;0.82;;;;;;;24.00;100.00;101960.22;10441033;28;20106;-78
2023/10/02 08:03:42;;;;;;;2.95;2.00;;;;;;;23.52;100.00;101947.63;10458624;28;20044;-78
2023/10/02 08:08:45;;;;;;;2.70;0.93;;;;;;;24.29;100.00;101948.41;10457182;28;20044;-78
2023/10/02 08:13:50;;;;;;;4.18;2.63;;;;;;;23.23;100.00;101947.94;10440279;28;20074;-77
2023/10/02 08:18:58;;;;;;;2.35;1.63;;;;;;;23.91;100.00;101940.09;10456162;28;20114;-78
2023/10/02 08:24:03;;;;;;;;;;;;;;;24.91;100.00;101928.94;10458302;28;20045;-78
2023/10/02 08:29:06;;;;;;;3.30;1.27;;;;;;;24.35;100.00;101934.28;10439711;28;19921;-78
2023/10/02 08:34:12;;;;;;;5.82;1.08;;;;;;;24.26;100.00;101935.25;10456065;28;20044;-79
2023/10/02 08:39:22;;;;;;;2.28;0.80;;;;;;;24.42;100.00;101940.28;10456363;28;20048;-77
2023/10/02 08:44:24;;;;;;;0.80;0.73;;;;;;;25.14;100.00;101946.13;10455391;28;20132;-77
2023/10/02 08:49:28;;;;;;;1.15;0.63;;;;;;;24.64;100.00;101946.97;10455632;28;20049;-77
2023/10/02 08:54:32;;;;;;;4.40;1.05;;;;;;;24.25;100.00;101933.53;10456662;28;20132;-78
2023/10/02 08:59:41;;;;;;;3.08;0.88;;;;;;;24.77;100.00;101930.97;10438238;28;20049;-77
2023/10/02 09:05:09;;;;;;;4.03;1.05;;;;;;;25.25;100.00;101938.00;10456074;28;20048;-77
2023/10/02 09:10:26;;;;;;;2.05;1.38;;;;;;;24.46;100.00;101949.91;10438356;28;20041;-77
2023/10/02 09:15:56;;;;;;;2.03;1.33;;;;;;;24.95;100.00;101940.31;10454875;28;20051;-77
2023/10/02 09:21:13;;;;;;;2.13;1.20;;;;;;;24.44;100.00;101941.16;10454658;28;20053;-78
2023/10/02 09:26:21;;;;;;;3.03;1.27;;;;;;;24.34;100.00;101954.44;10454830;28;20095;-78
2023/10/02 09:31:24;;;;;;;2.25;1.33;;;;;;;24.55;100.00;101937.44;10454630;28;20053;-77
2023/10/02 09:36:47;;;;;;;2.45;1.63;;;;;;;24.44;100.00;101936.75;10454399;28;20048;-78
2023/10/02 09:42:10;;;;;;;2.63;1.27;;;;;;;24.86;100.00;101944.00;10454266;28;20061;-77
2023/10/02 09:47:12;;;;;;;1.05;0.93;;;;;;;25.02;100.00;101942.81;10453979;28;20080;-78
2023/10/02 09:52:23;;;;;;;1.85;0.40;;;;;;;25.68;100.00;101936.31;10454193;28;20045;-77
2023/10/02 09:57:31;;;;;;;1.40;0.88;;;;;;;26.14;100.00;101919.47;10459407;28;20115;-77
2023/10/02 10:07:51;;;;;;;8.25;1.85;;;;;;;26.23;100.00;101919.28;10461456;28;20057;-77
2023/10/02 10:12:56;;;;;;;2.22;1.17;;;;;;;25.70;100.00;101918.69;10461090;28;20408;-77
2023/10/02 10:17:58;;;;;;;1.55;0.98;;;;;;;25.66;100.00;101926.66;10461237;28;20438;-78
2023/10/02 10:23:31;;;;;;;0.35;0.35;;;;;;;27.18;100.00;101923.03;10445060;28;20484;-77
2023/10/02 10:28:50;;;;;;;0.63;0.52;;;;;;;27.10;100.00;101919.72;10450566;28;20053;-77
2023/10/02 10:33:52;;;;;;;4.75;1.20;;;;;;;26.35;100.00;101911.94;10416125;28;20045;-78
2023/10/02 10:38:54;;;;;;;0.20;0.20;;;;;;;26.66;100.00;101909.38;10461084;28;20055;-77
2023/10/02 10:43:56;;;;;;;1.98;1.73;;;;;;;28.55;100.00;101895.09;10444189;28;20140;-78
2023/10/02 10:49:07;;;;;;;3.08;0.65;;;;;;;27.00;100.00;101907.66;10418695;28;20053;-78
2023/10/02 10:54:19;;;;;;;3.05;1.38;;;;;;;26.65;100.00;101899.75;10460313;28;20045;-78
2023/10/02 10:59:42;;;;;;;3.33;1.67;;;;;;;27.00;100.00;101892.69;10461242;28;20056;-77
2023/10/02 11:04:47;;;;;;;2.50;1.85;;;;;;;28.91;100.00;101898.25;10459712;28;20131;-79
2023/10/02 11:10:14;;;;;;;16.33;2.17;;;;;;;27.60;100.00;101900.69;10460414;28;20454;-77
2023/10/02 11:15:28;;;;;;;2.10;1.27;;;;;;;27.23;100.00;101897.31;10443105;28;20049;-77
2023/10/02 11:20:30;;;;;;;0.40;0.30;;;;;;;28.11;100.00;101893.84;10449435;28;20048;-78
2023/10/02 11:25:34;;;;;;;0.68;0.63;;;;;;;29.13;100.00;101887.72;10459147;28;20039;-77
2023/10/02 11:30:36;;;;;;;6.65;1.85;;;;;;;28.65;100.00;101880.56;10459540;28;20510;-78
2023/10/02 11:35:43;;;;;;;0.70;0.50;;;;;;;27.97;100.00;101880.13;10458800;28;20079;-78
2023/10/02 11:40:45;;;;;;;2.38;0.93;;;;;;;28.09;100.00;101879.78;10458314;28;20056;-77
2023/10/02 11:45:47;;;;;;;1.48;0.73;;;;;;;28.02;100.00;101871.13;10441317;28;20041;-78
2023/10/02 11:50:51;;;;;;;1.05;0.93;;;;;;;28.81;100.00;101865.88;10458734;28;20049;-78
2023/10/02 11:55:54;;;;;;;1.40;0.70;;;;;;;27.26;100.00;101866.41;10458027;28;20481;-79
2023/10/02 12:00:57;;;;;;;0.88;0.80;;;;;;;26.98;100.00;101856.59;10458966;28;20135;-78
2023/10/02 12:05:59;;;;;;;0.40;0.25;;;;;;;28.41;100.00;101853.97;10457429;28;20045;-78
2023/10/02 12:11:01;;;;;;;1.30;1.02;;;;;;;27.73;100.00;101852.66;10457406;28;20155;-78
2023/10/02 12:16:02;;;;;;;5.75;1.17;;;;;;;27.17;100.00;101855.16;10440256;28;20132;-78
2023/10/02 12:21:10;;;;;;;0.95;0.47;;;;;;;28.27;100.00;101854.47;10456232;28;20041;-79
2023/10/02 12:26:20;;;;;;;3.75;0.57;;;;;;;28.45;100.00;101852.97;10422707;28;20047;-78
2023/10/02 12:31:23;;;;;;;1.77;1.33;;;;;;;28.12;100.00;101845.25;10439889;28;20052;-78
2023/10/02 12:36:26;;;;;;;0.88;0.68;;;;;;;27.97;100.00;101840.41;10456224;28;20045;-79
2023/10/02 12:41:30;;;;;;;1.98;0.40;;;;;;;27.18;100.00;101833.09;10439612;28;20144;-79
2023/10/02 12:46:32;;;;;;;0.90;0.82;;;;;;;28.36;100.00;101816.19;10456910;28;20052;-78
2023/10/02 12:51:33;;;;;;;3.20;0.85;;;;;;;27.72;100.00;101814.75;10439523;28;20060;-78
2023/10/02 12:56:37;;;;;;;1.05;0.85;;;;;;;28.48;100.00;101821.06;10455278;28;20508;-78
2023/10/02 13:01:39;;;;;;;1.15;1.02;;;;;;;28.28;100.00;101812.94;10454592;28;20056;-78
2023/10/02 13:06:41;;;;;;;5.07;1.27;;;;;;;28.30;100.00;101803.16;10415440;28;20049;-78
2023/10/02 13:11:47;;;;;;;4.78;1.45;;;;;;;28.28;100.00;101786.44;10455259;28;20103;-78
2023/10/02 13:16:49;;;;;;;2.35;0.85;;;;;;;28.01;100.00;101784.66;10454850;28;20057;-78
2023/10/02 13:21:52;;;;;;;3.88;1.35;;;;;;;28.43;100.00;101770.00;10438534;28;20060;-78
2023/10/02 13:26:54;;;;;;;0.90;0.60;;;;;;;28.44;100.00;101766.44;10454833;28;20083;-78
2023/10/02 13:31:56;;;;;;;1.42;0.90;;;;;;;28.34;100.00;101770.31;10461707;28;20106;-78
2023/10/02 13:36:57;;;;;;;0.43;0.43;;;;;;;28.55;100.00;101767.84;10462937;28;20048;-79
2023/10/02 13:41:59;;;;;;;0.93;0.80;;;;;;;28.58;100.00;101767.72;10446609;28;20102;-78
2023/10/02 13:47:03;;;;;;;1.48;0.77;;;;;;;28.70;100.00;101767.31;10446439;28;20053;-78
2023/10/02 13:52:05;;;;;;;3.10;1.65;;;;;;;28.24;100.00;101747.75;10462923;28;20123;-78
2023/10/02 13:57:07;;;;;;;5.47;1.42;;;;;;;28.35;100.00;101745.56;10445984;28;20071;-78
2023/10/02 14:02:11;;;;;;;1.92;1.20;;;;;;;28.69;100.00;101739.06;10462024;28;20411;-77
2023/10/02 14:07:12;;;;;;;0.95;0.75;;;;;;;28.79;100.00;101734.28;10463338;28;20547;-78
2023/10/02 14:12:15;;;;;;;2.80;1.45;;;;;;;28.49;100.00;101732.66;10445418;28;20049;-78
2023/10/02 14:17:16;;;;;;;2.60;1.63;;;;;;;28.56;100.00;101727.16;10461430;28;20132;-78
2023/10/02 14:22:19;;;;;;;2.67;1.92;;;;;;;29.54;100.00;101711.91;10461228;28;20049;-77
2023/10/02 14:27:22;;;;;;;0.70;0.50;;;;;;;29.28;100.00;101704.97;10444738;28;20107;-77
2023/10/02 14:32:24;;;;;;;2.58;0.85;;;;;;;28.73;100.00;101708.84;10431414;28;20060;-78
2023/10/02 14:37:26;;;;;;;2.85;1.00;;;;;;;28.41;100.00;101708.22;10437938;28;20439;-78
2023/10/02 14:42:28;;;;;;;0.70;0.70;;;;;;;28.56;100.00;101700.66;10460931;28;20045;-78
2023/10/02 14:47:31;;;;;;;0.45;0.43;;;;;;;29.13;100.00;101696.72;10443543;28;20496;-78
2023/10/02 14:52:33;;;;;;;0.80;0.50;;;;;;;28.99;100.00;101688.44;10460225;28;20135;-78
2023/10/02 14:57:36;;;;;;;2.90;0.80;;;;;;;29.36;100.00;101673.72;10455450;28;20049;-78
2023/10/02 15:02:38;;;;;;;2.58;1.45;;;;;;;29.05;100.00;101674.91;10460087;28;20539;-77
2023/10/02 15:07:45;;;;;;;2.22;0.68;;;;;;;28.47;100.00;101675.34;10443167;28;20530;-78
2023/10/02 15:12:52;;;;;;;2.05;0.88;;;;;;;29.28;100.00;101658.06;10442984;28;20523;-78
2023/10/02 15:17:55;;;;;;;1.95;1.33;;;;;;;29.05;100.00;101645.75;10442767;28;20407;-78
2023/10/02 15:22:57;;;;;;;1.50;1.08;;;;;;;28.70;100.00;101645.38;10458852;28;20053;-77
2023/10/02 15:28:00;;;;;;;3.25;0.90;;;;;;;29.28;100.00;101642.13;10458688;28;20049;-78
2023/10/02 15:33:02;;;;;;;1.67;0.60;;;;;;;28.78;100.00;101643.25;10422103;28;20056;-77
2023/10/02 15:38:04;;;;;;;0.70;0.70;;;;;;;29.70;100.00;101632.44;10458605;28;20084;-77
2023/10/02 15:43:07;;;;;;;3.38;0.93;;;;;;;29.22;100.00;101625.63;10457997;28;20377;-78
2023/10/02 15:48:09;;;;;;;2.53;1.00;;;;;;;29.05;100.00;101629.81;10459362;28;20045;-78
2023/10/02 15:53:10;;;;;;;0.98;0.57;;;;;;;28.93;100.00;101620.56;10440124;28;20041;-78
2023/10/02 15:58:13;;;;;;;0.70;0.45;;;;;;;28.95;100.00;101612.53;10442306;28;20052;-78
2023/10/02 16:03:14;;;;;;;0.65;0.45;;;;;;;28.75;100.00;101606.25;10457647;28;20064;-77
2023/10/02 16:08:16;;;;;;;3.47;0.75;;;;;;;28.57;100.00;101596.34;10431719;28;20515;-78
2023/10/02 16:13:18;;;;;;;8.68;0.70;;;;;;;28.96;100.00;101598.38;10432739;28;20489;-78
2023/10/02 16:18:20;;;;;;;0.73;0.52;;;;;;;28.95;100.00;101588.69;10447929;28;20403;-78
2023/10/02 16:23:22;;;;;;;2.15;0.57;;;;;;;28.78;100.00;101587.56;10439956;28;20067;-77
2023/10/02 16:28:25;;;;;;;1.10;0.77;;;;;;;28.77;100.00;101583.22;10456838;28;20048;-77
2023/10/02 16:33:26;;;;;;;0.40;0.25;;;;;;;28.86;100.00;101581.97;10439951;28;20045;-77
2023/10/02 16:38:28;;;;;;;0.45;0.38;;;;;;;28.65;100.00;101567.75;10439707;28;20160;-77
2023/10/02 16:43:30;;;;;;;0.38;0.20;;;;;;;28.17;100.00;101573.13;10439313;28;20048;-77
2023/10/02 16:48:34;;;;;;;1.17;0.80;;;;;;;27.97;100.00;101565.00;10433742;28;20055;-77
2023/10/02 16:53:36;;;;;;;0.30;0.20;;;;;;;27.35;100.00;101561.88;10438506;28;20045;-77
2023/10/02 16:58:38;;;;;;;0.35;0.30;;;;;;;27.20;100.00;101556.19;10455400;28;20135;-77
2023/10/02 17:03:40;;;;;;;1.00;0.35;;;;;;;26.98;100.00;101536.66;10438571;28;20048;-77
2023/10/02 17:08:42;;;;;;;0.30;0.20;;;;;;;26.76;100.00;101545.31;10455140;28;20135;-77
2023/10/02 17:13:45;;;;;;;0.10;0.10;;;;;;;26.55;100.00;101552.09;10456238;28;20128;-77
2023/10/02 17:18:47;;;;;;;2.50;0.82;;;;;;;25.86;100.00;101555.81;10455071;28;20045;-77
2023/10/02 17:23:48;;;;;;;0.20;0.15;;;;;;;24.63;100.00;101541.28;10454906;28;20079;-77
2023/10/02 17:28:50;;;;;;;0.57;0.47;;;;;;;24.92;100.00;101543.25;10454716;28;20045;-77
2023/10/02 17:33:54;;;;;;;0.30;0.10;;;;;;;25.55;100.00;101540.81;10413314;28;20046;-77
2023/10/02 17:38:55;;;;;;;0.30;0.22;;;;;;;25.15;100.00;101541.81;10413294;28;20053;-77
2023/10/02 17:43:57;;;;;;;0.17;0.17;;;;;;;25.06;100.00;101542.06;10445182;28;20037;-77
2023/10/02 17:48:59;;;;;;;0.00;0.00;;;;;;;24.80;100.00;101531.22;10437525;28;20140;-78
2023/10/02 17:54:01;;;;;;;0.30;0.30;;;;;;;24.78;100.00;101524.28;10453762;28;20049;-77
2023/10/02 17:59:02;;;;;;;1.10;0.63;;;;;;;24.62;100.00;101529.00;10454086;28;20503;-77
2023/10/02 18:04:09;;;;;;;1.67;0.60;;;;;;;24.27;100.00;101509.59;10437286;28;20041;-76
2023/10/02 18:09:11;;;;;;;0.10;0.00;;;;;;;24.21;100.00;101506.19;10454935;28;20052;-76
2023/10/02 18:14:13;;;;;;;0.50;0.30;;;;;;;23.87;100.00;101506.88;10453917;28;20045;-77
2023/10/02 18:19:15;;;;;;;0.95;0.40;;;;;;;23.58;100.00;101512.69;10460730;28;20080;-77
2023/10/02 18:24:17;;;;;;;0.30;0.20;;;;;;;23.50;100.00;101512.84;10461687;28;20499;-76
2023/10/02 18:29:19;;;;;;;0.38;0.20;;;;;;;23.73;100.00;101503.66;10461510;28;20139;-77
2023/10/02 18:34:23;;;;;;;0.10;0.10;;;;;;;23.60;100.00;101510.91;10460975;28;20484;-76
2023/10/02 18:39:44;;;;;;;0.10;0.10;;;;;;;23.52;100.00;101516.31;10460918;28;20099;-76
2023/10/02 18:44:46;;;;;;;0.25;0.10;;;;;;;23.37;100.00;101506.94;10460724;28;20507;-77
2023/10/02 18:49:49;;;;;;;0.25;0.20;;;;;;;23.65;100.00;101506.41;10461904;28;20055;-76
2023/10/02 18:54:51;;;;;;;0.00;0.00;;;;;;;22.34;100.00;101491.00;10443578;28;20053;-76
2023/10/02 18:59:52;;;;;;;0.28;0.25;;;;;;;23.05;100.00;101495.19;10460054;28;20492;-76
2023/10/02 19:04:55;;;;;;;0.00;0.00;;;;;;;22.88;100.00;101492.00;10443534;28;20048;-77
2023/10/02 19:09:56;;;;;;;0.25;0.13;;;;;;;22.66;100.00;101487.06;10443263;28;20103;-76
2023/10/02 19:14:58;;;;;;;0.55;0.35;;;;;;;22.79;100.00;101464.97;10459445;28;20404;-77
2023/10/02 19:20:05;;;;;;;0.45;0.20;;;;;;;22.77;100.00;101468.53;10458699;28;20051;-77
2023/10/02 19:25:07;;;;;;;0.10;0.00;;;;;;;22.73;100.00;101461.56;10458884;28;20049;-77
2023/10/02 19:30:11;;;;;;;0.52;0.25;;;;;;;21.94;100.00;101462.66;10458684;28;20049;-76
2023/10/02 19:35:13;;;;;;;0.00;0.00;;;;;;;21.92;100.00;101456.56;10458476;28;20056;-77
2023/10/02 19:40:15;;;;;;;0.10;0.10;;;;;;;22.13;100.00;101450.16;10441772;28;20049;-77
2023/10/02 19:45:17;;;;;;;0.20;0.20;;;;;;;22.43;100.00;101446.28;10458429;28;20045;-77
2023/10/02 19:50:20;;;;;;;0.47;0.40;;;;;;;22.29;100.00;101446.44;10441754;28;20041;-76
2023/10/02 19:55:24;;;;;;;0.20;0.10;;;;;;;22.26;100.00;101440.38;10457668;28;20075;-77
2023/10/02 20:00:26;;;;;;;0.15;0.15;;;;;;;22.01;100.00;101424.94;10457220;28;20049;-77
2023/10/02 20:05:28;;;;;;;0.00;0.00;;;;;;;22.02;100.00;101416.19;10456854;28;20060;-77
2023/10/02 20:10:30;;;;;;;0.43;0.20;;;;;;;22.09;100.00;101401.25;10456964;28;20519;-77
2023/10/02 20:15:32;;;;;;;0.10;0.03;;;;;;;21.85;100.00;101388.47;10457295;28;20033;-77
2023/10/02 20:20:34;;;;;;;0.52;0.38;;;;;;;20.91;100.00;101398.22;10440166;28;20492;-77
2023/10/02 20:25:37;;;;;;;0.20;0.10;;;;;;;21.04;100.00;101380.63;10456603;28;20037;-76
2023/10/02 20:30:39;;;;;;;0.43;0.20;;;;;;;21.42;100.00;101373.22;10439797;28;20052;-77
2023/10/02 20:35:41;;;;;;;0.25;0.10;;;;;;;21.65;100.00;101366.84;10415171;28;20153;-77
2023/10/02 20:40:44;;;;;;;0.47;0.10;;;;;;;21.43;100.00;101364.47;10456024;28;20415;-77
2023/10/02 20:45:46;;;;;;;0.45;0.08;;;;;;;21.77;100.00;101355.34;10455818;28;20045;-77
2023/10/02 20:50:47;;;;;;;0.13;0.13;;;;;;;21.50;100.00;101362.66;10455854;28;20045;-77
2023/10/02 20:55:53;;;;;;;0.20;0.10;;;;;;;21.49;100.00;101361.78;10456224;28;20045;-77
2023/10/02 21:00:55;;;;;;;1.70;0.55;;;;;;;21.62;100.00;101359.06;10458279;28;20488;-76
2023/10/02 21:06:00;;;;;;;0.57;0.40;;;;;;;21.46;100.00;101353.06;10445774;28;20045;-77
2023/10/02 21:11:02;;;;;;;0.20;0.10;;;;;;;21.03;100.00;101349.22;10432884;28;20057;-77
2023/10/02 21:16:04;;;;;;;0.50;0.40;;;;;;;21.48;100.00;101346.94;10439383;28;20083;-77
2023/10/02 21:21:16;;;;;;;0.45;0.25;;;;;;;21.30;100.00;101331.44;10459890;28;20140;-77
2023/10/02 21:26:17;;;;;;;0.45;0.28;;;;;;;21.44;100.00;101315.56;10460613;28;20430;-77
2023/10/02 21:31:19;;;;;;;2.40;0.30;;;;;;;21.80;100.00;101311.59;10465537;28;20052;-77
2023/10/02 21:36:21;;;;;;;0.68;0.50;;;;;;;22.01;100.00;101305.16;10469520;28;20045;-77
2023/10/02 21:41:24;;;;;;;5.13;1.13;;;;;;;21.77;100.00;101289.78;10472435;28;20053;-77
2023/10/02 21:46:25;;;;;;;1.45;0.70;;;;;;;22.08;100.00;101282.28;10440771;28;20073;-77
2023/10/02 21:51:27;;;;;;;1.08;0.75;;;;;;;22.17;100.00;101279.53;10479534;28;20045;-77
2023/10/02 21:56:28;;;;;;;0.82;0.52;;;;;;;22.18;100.00;101265.53;10470101;28;20055;-77
2023/10/02 22:01:30;;;;;;;0.88;0.50;;;;;;;22.12;100.00;101249.00;10479875;28;20045;-77
2023/10/02 22:06:32;;;;;;;2.85;1.52;;;;;;;22.24;100.00;101253.19;10484645;28;20071;-77
2023/10/02 22:11:36;;;;;;;1.52;1.35;;;;;;;22.56;100.00;101246.53;10444923;28;20099;-77
2023/10/02 22:16:39;;;;;;;0.98;0.65;;;;;;;22.31;100.00;101233.81;10453017;28;20048;-77
2023/10/02 22:21:44;;;;;;;8.68;1.95;;;;;;;22.47;100.00;101237.91;10487246;28;20048;-77
2023/10/02 22:26:46;;;;;;;0.47;0.35;;;;;;;22.53;100.00;101228.19;10483957;28;20033;-78
2023/10/02 22:31:48;;;;;;;1.70;0.95;;;;;;;22.52;100.00;101214.22;10481555;28;20071;-77
2023/10/02 22:36:49;;;;;;;0.60;0.60;;;;;;;22.50;100.00;101203.75;10469156;28;20053;-76
2023/10/02 22:41:51;;;;;;;3.03;1.63;;;;;;;22.43;100.00;101199.50;10460588;28;20060;-78
2023/10/02 22:46:54;;;;;;;2.88;1.58;;;;;;;22.41;100.00;101182.06;10454033;28;20052;-78
2023/10/02 22:51:56;;;;;;;0.93;0.63;;;;;;;22.47;100.00;101182.78;10482045;28;20056;-78
2023/10/02 22:57:02;;;;;;;0.85;0.85;;;;;;;22.50;100.00;101173.97;10462481;28;20051;-79
2023/10/02 23:02:06;;;;;;;0.65;0.43;;;;;;;22.39;100.00;101173.34;10455992;28;20118;-78
2023/10/02 23:07:08;;;;;;;1.30;0.88;;;;;;;22.63;100.00;101154.50;10470983;28;20056;-79
2023/10/02 23:12:13;;;;;;;1.23;0.98;;;;;;;22.65;100.00;101139.53;10477190;28;20546;-78
2023/10/02 23:17:15;;;;;;;1.38;0.95;;;;;;;22.65;100.00;101123.78;10477525;28;20043;-78
2023/10/02 23:22:16;;;;;;;0.73;0.55;;;;;;;22.53;100.00;101120.53;10473936;28;20053;-79
2023/10/02 23:27:18;;;;;;;1.70;0.88;;;;;;;22.69;100.00;101110.59;10472681;28;20040;-78
2023/10/02 23:32:20;;;;;;;3.55;1.02;;;;;;;22.35;100.00;101109.50;10467754;28;20399;-78
2023/10/02 23:37:21;;;;;;;3.83;0.98;;;;;;;22.49;100.00;101102.25;10453517;28;20052;-78